VILK/LKO METAR and TAF weather

Enter ICAO airport designator
Station Type Date Time Source
VILK METAR 2022/05/23 15:00 UTC NOAA

VILK 231500Z 00000KT 4000 HZ SCT020 BKN100 24/21 Q1000 NOSIG


Station Type Date Time Source
VILK Decoded METAR 2022/05/23 15:00 UTC NOAA

Lucknow / Amausi, India (VILK) 26-45N 080-53E 128M
May 23, 2022 - 11:00 AM EDT / 2022.05.23 1500 UTC
Wind: Calm:0
Visibility: 2 mile(s):0
Sky conditions: mostly cloudy
Weather: haze
Temperature: 75 F (24 C)
Dew Point: 69 F (21 C)
Relative Humidity: 83%
Pressure (altimeter): 29.53 in. Hg (1000 hPa)
ob: VILK 231500Z 00000KT 4000 HZ SCT020 BKN100 24/21 Q1000 NOSIG
cycle: 15

Station Type Date Time Source
VILK TAF 2022/05/23 12:27 UTC NOAA

TAF VILK 231100Z 2312/2418 05004KT 5000 HZ SCT020 BKN100
TEMPO 2312/2316 2000 -TSRA FEW030CB OVC090
BECMG 2319/2321 07004KT 3000 HZ BR SCT020 BKN090
BECMG 2404/2406 09008KT 5000 HZ

Example: see airport list